Time;durP1;ratioP1;P1;durP2;ratioP2;P2;SDS_P1;SDS_P2;PMS_P1;PMS_P2;Temp;Humidity;BMP_temperature;BMP_pressure;BME280_temperature;BME280_humidity;BME280_pressure;Samples;Min_cycle;Max_cycle;Signal;HPM_P1;HPM_P2
2022/05/19 00:00:22;;;;;;;2.77;2.57;;;18.20;99.90;;;;;;5032937;28;20460;-61
2022/05/19 00:02:50;;;;;;;2.83;2.57;;;18.20;99.90;;;;;;5033697;28;20886;-61
2022/05/19 00:05:16;;;;;;;2.73;2.53;;;18.30;99.90;;;;;;5033612;28;20449;-61
2022/05/19 00:07:43;;;;;;;3.27;2.43;;;18.30;99.90;;;;;;5033453;28;20448;-61
2022/05/19 00:10:10;;;;;;;3.30;2.57;;;18.40;99.90;;;;;;5033289;28;20563;-61
2022/05/19 00:12:36;;;;;;;2.77;2.57;;;18.40;99.90;;;;;;5033581;28;20481;-61
2022/05/19 00:15:04;;;;;;;3.50;3.20;;;18.40;99.90;;;;;;5033364;28;20967;-61
2022/05/19 00:17:31;;;;;;;2.87;2.67;;;18.40;99.90;;;;;;5033552;28;20464;-61
2022/05/19 00:19:59;;;;;;;5.97;2.47;;;18.30;99.90;;;;;;5033383;28;20544;-60
2022/05/19 00:22:25;;;;;;;3.03;2.63;;;18.40;99.90;;;;;;5033571;28;20532;-60
2022/05/19 00:24:52;;;;;;;3.10;2.80;;;18.30;99.90;;;;;;5033195;28;20549;-61
2022/05/19 00:27:18;;;;;;;6.20;2.47;;;18.30;99.90;;;;;;5033373;28;20544;-61
2022/05/19 00:29:45;;;;;;;2.93;2.50;;;18.30;99.90;;;;;;5033334;28;20536;-61
2022/05/19 00:32:11;;;;;;;2.43;2.23;;;18.30;99.90;;;;;;5033165;28;20588;-61
2022/05/19 00:34:38;;;;;;;7.90;2.70;;;18.30;99.90;;;;;;5033202;28;20456;-61
2022/05/19 00:37:06;;;;;;;2.50;2.30;;;18.30;99.90;;;;;;5033106;28;20544;-61
2022/05/19 00:39:35;;;;;;;6.63;3.30;;;18.20;99.90;;;;;;5033476;28;20451;-60
2022/05/19 00:44:45;;;;;;;4.23;3.70;;;18.10;99.90;;;;;;5033118;28;20431;-60
2022/05/19 00:47:17;;;;;;;4.13;2.77;;;18.10;99.90;;;;;;5033090;28;20492;-61
2022/05/19 00:49:45;;;;;;;3.73;2.70;;;18.00;99.90;;;;;;5032958;28;20808;-60
2022/05/19 00:52:21;;;;;;;2.80;2.33;;;18.00;99.90;;;;;;5033060;28;20491;-61
2022/05/19 00:54:51;;;;;;;6.83;2.90;;;17.90;99.90;;;;;;5033204;28;20879;-60
2022/05/19 00:57:20;;;;;;;3.23;2.93;;;;;;;;;;5033070;28;20866;-61
2022/05/19 00:59:49;;;;;;;2.60;2.43;;;;;;;;;;5032883;28;20447;-60
2022/05/19 01:02:17;;;;;;;5.67;3.43;;;;;;;;;;5032774;28;20964;-61
2022/05/19 01:04:46;;;;;;;2.53;2.33;;;;;;;;;;5032752;28;20480;-61
2022/05/19 01:07:17;;;;;;;3.00;2.80;;;;;;;;;;5032907;28;20535;-61
2022/05/19 01:09:44;;;;;;;3.67;3.20;;;;;;;;;;5032792;28;20479;-61
2022/05/19 01:12:12;;;;;;;4.70;2.90;;;;;;;;;;5035592;28;20484;-61
2022/05/19 01:14:39;;;;;;;4.43;2.80;;;;;;;;;;5037000;28;20532;-61
2022/05/19 01:17:06;;;;;;;4.70;2.63;;;;;;;;;;5036639;28;20966;-61
2022/05/19 01:19:36;;;;;;;3.10;2.90;;;;;;;;;;5036913;28;20486;-61
2022/05/19 01:22:06;;;;;;;2.97;2.80;;;;;;;;;;5036724;28;20546;-61
2022/05/19 01:24:36;;;;;;;3.43;2.73;;;;;;;;;;5037050;28;20810;-61
2022/05/19 01:27:05;;;;;;;2.70;2.50;;;;;;;;;;5036668;28;20453;-61
2022/05/19 01:29:32;;;;;;;3.17;2.87;;;;;;;;;;5036707;28;20547;-61
2022/05/19 01:32:00;;;;;;;3.00;2.80;;;;;;;;;;5036760;28;20484;-61
2022/05/19 01:34:29;;;;;;;4.97;3.00;;;;;;;;;;5036500;28;20485;-61
2022/05/19 01:36:56;;;;;;;3.10;2.80;;;;;;;;;;5036412;28;20892;-61
2022/05/19 01:39:24;;;;;;;3.70;3.40;;;;;;;;;;5036285;28;20536;-61
2022/05/19 01:41:59;;;;;;;3.43;3.17;;;;;;;;;;5036436;28;20986;-61
2022/05/19 01:44:42;;;;;;;4.90;3.37;;;;;;;;;;5036250;28;20892;-61
2022/05/19 01:47:11;;;;;;;3.73;2.83;;;;;;;;;;5036303;28;20539;-61
2022/05/19 01:49:42;;;;;;;3.23;2.87;;;;;;;;;;5036055;28;20990;-61
2022/05/19 01:52:13;;;;;;;3.67;3.20;;;;;;;;;;5036170;28;20575;-61
2022/05/19 01:54:43;;;;;;;3.30;3.10;;;;;;;;;;5036148;28;20453;-61
2022/05/19 01:57:13;;;;;;;3.83;3.53;;;;;;;;;;5036147;28;20459;-61
2022/05/19 01:59:44;;;;;;;3.90;3.60;;;;;;;;;;5035964;28;20456;-61
2022/05/19 02:02:14;;;;;;;3.07;2.70;;;;;;;;;;5035969;28;20457;-61
2022/05/19 02:04:45;;;;;;;3.33;3.00;;;;;;;;;;5035812;28;20449;-61
2022/05/19 02:07:15;;;;;;;3.47;3.17;;;;;;;;;;5036010;28;20460;-61
2022/05/19 02:09:44;;;;;;;4.43;3.13;;;;;;;;;;5035912;28;20453;-61
2022/05/19 02:12:11;;;;;;;3.33;3.00;;;;;;;;;;5035658;28;20516;-61
2022/05/19 02:14:40;;;;;;;3.77;3.50;;;;;;;;;;5035785;28;20532;-61
2022/05/19 02:17:10;;;;;;;3.63;3.33;;;;;;;;;;5035639;28;20536;-61
2022/05/19 02:19:40;;;;;;;3.40;3.10;;;;;;;;;;5035816;28;20441;-61
2022/05/19 02:22:08;;;;;;;4.83;3.10;;;;;;;;;;5035541;28;20790;-61
2022/05/19 02:24:36;;;;;;;3.03;2.83;;;;;;;;;;5035139;28;20962;-61
2022/05/19 02:27:18;;;;;;;3.10;2.90;;;;;;;;;;5035498;28;20532;-61
2022/05/19 02:29:45;;;;;;;5.93;3.50;;;;;;;;;;5035388;28;20540;-61
2022/05/19 02:32:14;;;;;;;5.60;3.30;;;;;;;;;;5035367;28;20484;-61
2022/05/19 02:34:40;;;;;;;5.10;3.13;;;;;;;;;;5035445;28;20865;-62
2022/05/19 02:37:08;;;;;;;4.70;3.67;;;;;;;;;;5035259;28;20959;-61
2022/05/19 02:39:35;;;;;;;2.97;2.77;;;;;;;;;;5035426;28;20449;-61
2022/05/19 02:42:02;;;;;;;3.80;3.50;;;;;;;;;;5035289;28;20544;-61
2022/05/19 02:44:29;;;;;;;3.90;3.50;;;;;;;;;;5034916;28;20487;-61
2022/05/19 02:46:56;;;;;;;3.83;3.23;;;;;;;;;;5035290;28;20830;-61
2022/05/19 02:49:24;;;;;;;3.87;3.10;;;;;;;;;;5035329;28;20449;-61
2022/05/19 02:51:51;;;;;;;3.70;3.40;;;;;;;;;;5034976;28;20488;-61
2022/05/19 02:54:21;;;;;;;3.60;3.30;;;;;;;;;;5035214;28;20536;-60
2022/05/19 02:56:48;;;;;;;4.00;3.70;;;;;;;;;;5034716;28;20447;-61
2022/05/19 02:59:15;;;;;;;3.87;3.03;;;;;;;;;;5035032;28;20544;-61
2022/05/19 03:01:42;;;;;;;3.27;3.07;;;;;;;;;;5034909;28;20449;-61
2022/05/19 03:04:09;;;;;;;4.07;3.67;;;;;;;;;;5034920;28;20544;-61
2022/05/19 03:06:38;;;;;;;4.03;3.63;;;;;;;;;;5034718;28;20484;-61
2022/05/19 03:09:05;;;;;;;4.07;3.50;;;;;;;;;;5034708;28;20445;-60
2022/05/19 03:11:32;;;;;;;5.30;3.93;;;;;;;;;;5034467;28;21047;-61
2022/05/19 03:13:59;;;;;;;3.73;3.00;;;;;;;;;;5034841;28;20446;-61
2022/05/19 03:16:26;;;;;;;3.83;3.53;;;;;;;;;;5034704;28;20544;-61
2022/05/19 03:18:53;;;;;;;7.93;3.70;;;;;;;;;;5034725;28;20540;-61
2022/05/19 03:21:20;;;;;;;4.97;3.57;;;;;;;;;;5034470;28;20456;-60
2022/05/19 03:23:48;;;;;;;6.20;3.80;;;;;;;;;;5034381;28;20653;-61
2022/05/19 03:26:15;;;;;;;3.40;3.10;;;;;;;;;;5034258;28;20540;-61
2022/05/19 03:28:42;;;;;;;4.97;3.23;;;;;;;;;;5034444;28;20532;-61
2022/05/19 03:31:10;;;;;;;4.60;3.77;;;;;;;;;;5034163;28;20552;-61
2022/05/19 03:33:37;;;;;;;4.50;3.47;;;;;;;;;;5034204;28;20540;-61
2022/05/19 03:36:05;;;;;;;3.60;3.30;;;;;;;;;;5033084;28;20536;-61
2022/05/19 03:38:32;;;;;;;5.40;3.43;;;;;;;;;;5033946;28;21002;-61
2022/05/19 03:41:00;;;;;;;3.83;3.40;;;;;;;;;;5034176;28;20445;-61
2022/05/19 03:43:27;;;;;;;3.37;3.13;;;;;;;;;;5034046;28;20501;-61
2022/05/19 03:45:54;;;;;;;6.57;3.30;;;;;;;;;;5034111;28;20456;-61
2022/05/19 03:48:21;;;;;;;4.43;3.50;;;;;;;;;;5033938;28;20445;-61
2022/05/19 03:50:48;;;;;;;4.43;3.50;;;;;;;;;;5033758;28;20850;-61
2022/05/19 03:53:16;;;;;;;5.60;3.50;;;;;;;;;;5033696;28;21038;-61
2022/05/19 03:55:44;;;;;;;4.33;3.60;;;;;;;;;;5034110;28;20460;-61
2022/05/19 03:58:12;;;;;;;5.63;3.37;;;;;;;;;;5033672;28;20483;-60
2022/05/19 04:00:39;;;;;;;8.00;3.93;;;;;;;;;;5033684;28;20450;-61
2022/05/19 04:03:07;;;;;;;10.80;5.77;;;;;;;;;;5033583;28;20460;-61
2022/05/19 04:05:34;;;;;;;9.03;3.77;;;;;;;;;;5033447;28;20460;-61
2022/05/19 04:08:01;;;;;;;8.17;3.93;;;;;;;;;;5033722;28;20536;-61
2022/05/19 04:10:28;;;;;;;4.00;3.20;;;;;;;;;;5033733;28;20449;-61
2022/05/19 04:12:55;;;;;;;3.67;3.47;;;;;;;;;;5033618;28;20506;-61
2022/05/19 04:15:24;;;;;;;3.60;3.40;;;;;;;;;;5033469;28;20539;-61
2022/05/19 04:17:51;;;;;;;5.00;3.80;;;;;;;;;;5033486;28;20544;-61
2022/05/19 04:20:18;;;;;;;4.27;3.97;;;;;;;;;;5033333;28;20953;-60
2022/05/19 04:22:45;;;;;;;4.03;3.50;;;;;;;;;;5033202;28;20460;-61
2022/05/19 04:25:13;;;;;;;4.10;3.20;;;;;;;;;;5033623;28;20548;-60
2022/05/19 04:27:40;;;;;;;3.47;3.20;;;;;;;;;;5033434;28;20449;-60
2022/05/19 04:30:08;;;;;;;4.50;3.77;;;;;;;;;;5033199;28;20449;-60
2022/05/19 04:32:36;;;;;;;5.70;3.00;;;;;;;;;;5033035;28;20572;-61
2022/05/19 04:35:03;;;;;;;4.33;3.50;;;;;;;;;;5033206;28;20540;-61
2022/05/19 04:37:30;;;;;;;4.50;3.17;;;;;;;;;;5033255;28;20459;-61
2022/05/19 04:39:57;;;;;;;3.53;3.20;;;;;;;;;;5033205;28;20449;-61
2022/05/19 04:42:24;;;;;;;4.33;3.93;;;;;;;;;;5032845;28;20541;-61
2022/05/19 04:44:51;;;;;;;5.17;3.87;;;;;;;;;;5033011;28;20976;-61
2022/05/19 04:47:18;;;;;;;3.80;3.37;;;;;;;;;;5032532;28;20560;-61
2022/05/19 04:49:46;;;;;;;4.93;4.00;;;;;;;;;;5033033;28;20451;-61
2022/05/19 04:52:13;;;;;;;3.40;3.10;;;;;;;;;;5032873;28;20547;-61
2022/05/19 04:54:40;;;;;;;5.23;3.27;;;;;;;;;;5032930;28;20449;-61
2022/05/19 04:57:08;;;;;;;4.43;2.97;;;16.10;99.90;;;;;;5032835;28;20455;-61
2022/05/19 04:59:37;;;;;;;7.70;2.97;;;16.10;99.90;;;;;;5032678;28;20449;-61
2022/05/19 05:02:03;;;;;;;4.20;3.23;;;16.30;99.90;;;;;;5032603;28;20484;-61
2022/05/19 05:04:30;;;;;;;3.77;3.47;;;16.50;99.90;;;;;;5032906;28;20532;-61
2022/05/19 05:06:58;;;;;;;3.13;2.70;;;16.60;99.90;;;;;;5032849;28;20532;-60
2022/05/19 05:09:25;;;;;;;2.93;2.73;;;16.70;99.90;;;;;;5032764;28;20536;-61
2022/05/19 05:11:52;;;;;;;3.20;2.90;;;16.90;99.90;;;;;;5032515;28;20469;-60
2022/05/19 05:14:19;;;;;;;4.60;3.17;;;17.00;99.90;;;;;;5032599;28;20448;-61
2022/05/19 05:16:47;;;;;;;10.80;3.43;;;17.10;99.90;;;;;;5032840;28;20541;-61
2022/05/19 05:19:18;;;;;;;3.50;3.20;;;17.10;99.90;;;;;;5032757;28;20877;-61
2022/05/19 05:21:45;;;;;;;5.00;3.80;;;17.20;99.90;;;;;;5033064;28;20464;-61
2022/05/19 05:24:13;;;;;;;5.80;2.93;;;17.30;99.90;;;;;;5032659;28;20449;-61
2022/05/19 05:26:39;;;;;;;12.00;8.20;;;17.60;99.90;;;;;;5032566;28;20477;-61
2022/05/19 05:29:06;;;;;;;3.40;3.10;;;17.80;99.90;;;;;;5032759;28;20736;-61
2022/05/19 05:31:32;;;;;;;3.73;3.23;;;17.90;99.90;;;;;;5032554;28;20445;-61
2022/05/19 05:33:59;;;;;;;3.10;2.70;;;18.10;99.90;;;;;;5032578;28;20543;-61
2022/05/19 05:36:25;;;;;;;8.17;3.30;;;18.40;99.90;;;;;;5032269;28;20523;-61
2022/05/19 05:38:52;;;;;;;5.83;2.90;;;18.40;99.90;;;;;;5032323;28;20449;-61
2022/05/19 05:41:20;;;;;;;5.10;2.70;;;18.60;99.90;;;;;;5032521;28;20549;-61
2022/05/19 05:43:47;;;;;;;3.40;2.90;;;18.90;99.90;;;;;;5032404;28;20481;-61
2022/05/19 05:46:15;;;;;;;4.53;2.90;;;19.10;99.90;;;;;;5032571;28;20897;-61
2022/05/19 05:48:45;;;;;;;3.40;3.10;;;19.20;99.90;;;;;;5032543;28;20540;-61
2022/05/19 05:51:14;;;;;;;3.20;2.90;;;19.20;99.90;;;;;;5032246;28;20449;-61
2022/05/19 05:53:43;;;;;;;4.60;3.10;;;19.30;99.90;;;;;;5032198;28;20883;-61
2022/05/19 05:56:18;;;;;;;3.30;2.80;;;19.40;99.90;;;;;;5032353;28;20445;-61
2022/05/19 05:58:46;;;;;;;2.90;2.70;;;19.60;99.90;;;;;;5034307;28;20535;-61
2022/05/19 06:01:14;;;;;;;4.17;2.43;;;19.70;99.90;;;;;;5035699;28;20543;-60
2022/05/19 06:03:41;;;;;;;2.77;2.57;;;20.00;99.90;;;;;;5035976;28;20449;-60
2022/05/19 06:06:08;;;;;;;6.90;2.77;;;20.20;99.90;;;;;;5035754;28;20445;-61
2022/05/19 06:08:35;;;;;;;2.80;2.60;;;20.10;99.90;;;;;;5036344;28;20465;-61
2022/05/19 06:11:02;;;;;;;3.33;3.00;;;20.20;99.90;;;;;;5035896;28;20843;-61
2022/05/19 06:13:29;;;;;;;2.73;2.53;;;20.30;99.90;;;;;;5035745;28;20507;-61
2022/05/19 06:15:57;;;;;;;2.93;2.73;;;20.30;99.90;;;;;;5035785;28;20492;-61
2022/05/19 06:18:25;;;;;;;4.47;3.23;;;20.40;99.90;;;;;;5035861;28;20539;-60
2022/05/19 06:20:52;;;;;;;6.27;3.10;;;20.30;99.90;;;;;;5035386;28;20457;-60
2022/05/19 06:23:19;;;;;;;4.43;3.37;;;20.40;99.90;;;;;;5035437;28;20556;-61
2022/05/19 06:25:46;;;;;;;3.20;2.90;;;20.50;99.90;;;;;;5035428;28;20758;-61
2022/05/19 06:28:13;;;;;;;3.10;2.73;;;20.60;99.90;;;;;;5035567;28;20492;-61
2022/05/19 06:30:40;;;;;;;3.90;3.10;;;20.80;99.90;;;;;;5035390;28;20449;-61
2022/05/19 06:33:09;;;;;;;5.00;3.03;;;21.00;99.90;;;;;;5035169;28;20487;-61
2022/05/19 06:35:38;;;;;;;3.00;2.40;;;21.00;99.90;;;;;;5035209;28;20507;-61
2022/05/19 06:38:05;;;;;;;3.30;3.00;;;21.10;99.90;;;;;;5035441;28;20924;-61
2022/05/19 06:40:34;;;;;;;5.60;3.50;;;21.20;99.90;;;;;;5035182;28;20464;-60
2022/05/19 06:43:01;;;;;;;4.03;3.53;;;21.40;99.90;;;;;;5035171;28;20516;-61
2022/05/19 06:45:29;;;;;;;3.13;2.93;;;21.60;99.90;;;;;;5035124;28;20485;-60
2022/05/19 06:47:56;;;;;;;3.23;3.00;;;21.90;99.90;;;;;;5034912;28;20544;-61
2022/05/19 06:50:25;;;;;;;5.60;2.83;;;22.10;99.90;;;;;;5035110;28;20449;-61
2022/05/19 06:52:55;;;;;;;3.47;3.23;;;22.10;99.90;;;;;;5034925;28;20485;-61
2022/05/19 06:55:24;;;;;;;3.73;2.80;;;22.00;99.90;;;;;;5034946;28;20454;-61
2022/05/19 06:57:51;;;;;;;5.07;2.60;;;22.10;99.90;;;;;;5034742;28;20458;-61
2022/05/19 07:00:19;;;;;;;4.43;2.70;;;22.10;99.90;;;;;;5034245;28;20459;-61
2022/05/19 07:02:49;;;;;;;5.77;2.53;;;22.10;99.90;;;;;;5034529;28;20540;-61
2022/05/19 07:05:17;;;;;;;3.07;2.87;;;22.30;99.90;;;;;;5035205;28;20457;-61
2022/05/19 07:07:46;;;;;;;3.60;3.30;;;22.40;99.90;;;;;;5034612;28;20461;-61
2022/05/19 07:10:15;;;;;;;3.17;3.00;;;22.50;99.90;;;;;;5034626;28;20449;-61
2022/05/19 07:12:43;;;;;;;3.43;3.13;;;22.60;99.90;;;;;;5034418;28;20556;-61
2022/05/19 07:15:11;;;;;;;2.77;2.57;;;22.70;99.90;;;;;;5034213;28;20453;-61
2022/05/19 07:17:37;;;;;;;3.23;2.80;;;22.90;99.90;;;;;;5034646;28;20812;-61
2022/05/19 07:22:50;;;;;;;6.17;3.23;;;22.80;99.90;;;;;;5034110;28;20456;-61
2022/05/19 07:25:17;;;;;;;3.23;3.03;;;22.90;99.90;;;;;;5035027;28;20480;-60
2022/05/19 07:27:44;;;;;;;4.83;3.63;;;23.00;99.90;;;;;;5034117;28;20449;-61
2022/05/19 07:30:12;;;;;;;3.40;3.10;;;23.20;99.90;;;;;;5034360;28;20547;-61
2022/05/19 07:32:39;;;;;;;3.00;2.90;;;23.20;99.90;;;;;;5034137;28;20556;-61
2022/05/19 07:35:08;;;;;;;3.27;2.97;;;23.30;99.90;;;;;;5034016;28;20480;-61
2022/05/19 07:37:35;;;;;;;3.30;3.10;;;23.40;99.90;;;;;;5034190;28;20449;-61
2022/05/19 07:40:04;;;;;;;3.70;3.40;;;23.50;99.90;;;;;;5033925;28;20456;-61
2022/05/19 07:42:31;;;;;;;4.03;3.13;;;23.60;99.90;;;;;;5033669;28;20908;-61
2022/05/19 07:44:57;;;;;;;3.30;3.10;;;23.80;99.90;;;;;;5034011;28;20450;-61
2022/05/19 07:47:24;;;;;;;3.13;2.90;;;23.80;99.90;;;;;;5033872;28;20444;-61
2022/05/19 07:49:54;;;;;;;4.50;3.20;;;24.00;99.90;;;;;;5033927;28;20456;-61
2022/05/19 07:52:21;;;;;;;4.87;3.30;;;24.10;99.90;;;;;;5033962;28;20852;-61
2022/05/19 07:54:47;;;;;;;3.93;3.60;;;24.10;99.90;;;;;;5033544;28;20485;-61
2022/05/19 07:57:15;;;;;;;3.30;3.10;;;24.30;99.90;;;;;;5033792;28;20878;-61
2022/05/19 07:59:41;;;;;;;3.77;3.47;;;24.50;99.90;;;;;;5033863;28;20445;-61
2022/05/19 08:02:08;;;;;;;4.30;3.90;;;24.30;99.90;;;;;;5033762;28;20449;-61
2022/05/19 08:04:35;;;;;;;6.50;3.13;;;24.40;99.90;;;;;;5033713;28;20479;-61
2022/05/19 08:07:02;;;;;;;11.07;3.10;;;24.50;99.90;;;;;;5033549;28;20449;-61
2022/05/19 08:15:34;;;;;;;4.20;3.27;;;24.50;99.90;;;;;;5033569;28;20972;-61
2022/05/19 08:17:50;;;;;;;3.30;3.00;;;24.70;99.90;;;;;;5033954;28;20951;-61
2022/05/19 08:20:18;;;;;;;8.93;3.33;;;24.80;99.90;;;;;;5033063;28;20533;-61
2022/05/19 08:22:44;;;;;;;4.17;2.93;;;24.90;99.90;;;;;;5033052;28;20452;-61
2022/05/19 08:25:12;;;;;;;5.70;3.50;;;25.00;99.90;;;;;;5033253;28;20451;-61
2022/05/19 08:27:44;;;;;;;3.27;2.90;;;24.60;99.90;;;;;;5033158;28;20449;-61
2022/05/19 08:30:11;;;;;;;3.80;3.23;;;24.80;99.90;;;;;;5033045;28;20441;-61
2022/05/19 08:32:38;;;;;;;3.33;3.03;;;25.10;99.90;;;;;;5033239;28;20985;-61
2022/05/19 08:35:06;;;;;;;4.70;3.63;;;25.30;99.90;;;;;;5033253;28;20511;-61
2022/05/19 08:37:33;;;;;;;4.97;3.50;;;25.50;99.90;;;;;;5033198;28;20536;-61
2022/05/19 08:39:59;;;;;;;3.73;3.30;;;25.60;99.90;;;;;;5033024;28;20962;-61
2022/05/19 08:42:27;;;;;;;3.80;3.50;;;25.70;99.90;;;;;;5032654;28;20563;-61
2022/05/19 08:44:58;;;;;;;4.30;2.83;;;25.80;99.90;;;;;;5032870;28;20956;-61
2022/05/19 08:47:29;;;;;;;3.73;3.47;;;26.00;99.90;;;;;;5033070;28;20515;-61
2022/05/19 08:49:58;;;;;;;3.83;3.53;;;26.30;99.90;;;;;;5032994;28;20541;-61
2022/05/19 08:52:27;;;;;;;4.87;3.70;;;26.30;99.90;;;;;;5032790;28;20460;-61
2022/05/19 08:54:56;;;;;;;4.13;3.23;;;26.30;99.90;;;;;;5032830;28;20491;-61
2022/05/19 08:57:25;;;;;;;4.13;3.23;;;26.30;99.90;;;;;;5032814;28;20503;-61
2022/05/19 09:00:02;;;;;;;4.53;3.47;;;26.30;99.90;;;;;;5032986;28;20453;-61
2022/05/19 09:02:35;;;;;;;8.90;3.83;;;26.10;99.90;;;;;;5032905;28;20460;-61
2022/05/19 09:05:27;;;;;;;3.73;3.30;;;26.20;99.90;;;;;;5032874;28;20544;-61
2022/05/19 09:08:03;;;;;;;4.97;4.27;;;26.60;99.90;;;;;;5032783;28;20481;-61
2022/05/19 09:10:53;;;;;;;4.17;3.80;;;26.80;99.90;;;;;;5032619;28;20891;-65
2022/05/19 09:13:30;;;;;;;4.47;3.80;;;26.70;99.90;;;;;;5032589;28;20515;-59
2022/05/19 09:16:00;;;;;;;6.43;3.40;;;26.70;99.90;;;;;;5032399;28;20452;-58
2022/05/19 09:18:33;;;;;;;5.50;3.63;;;26.70;99.90;;;;;;5032601;28;20858;-57
2022/05/19 09:21:02;;;;;;;5.53;4.00;;;26.80;99.90;;;;;;5032470;28;20455;-59
2022/05/19 09:23:29;;;;;;;3.17;2.93;;;26.90;99.90;;;;;;5032453;28;20450;-64
2022/05/19 09:26:08;;;;;;;6.40;5.73;;;27.10;99.90;;;;;;5032545;28;20475;-61
2022/05/19 09:28:36;;;;;;;4.00;3.40;;;27.00;99.90;;;;;;5032249;28;20484;-61
2022/05/19 09:31:03;;;;;;;3.67;3.30;;;27.40;99.90;;;;;;5032749;28;20786;-59
2022/05/19 09:33:35;;;;;;;4.37;4.00;;;27.50;99.90;;;;;;5031422;28;20976;-59
2022/05/19 09:36:11;;;;;;;4.23;3.40;;;27.60;99.90;;;;;;5036259;28;20813;-59
2022/05/19 09:38:39;;;;;;;4.03;3.27;;;27.50;99.90;;;;;;5036210;28;20460;-59
2022/05/19 09:41:08;;;;;;;6.93;3.83;;;27.70;99.90;;;;;;5035676;28;20453;-59
2022/05/19 09:43:37;;;;;;;3.57;3.27;;;27.90;99.90;;;;;;5036097;28;20477;-59
2022/05/19 09:46:09;;;;;;;3.20;3.00;;;28.00;99.90;;;;;;5036142;28;20455;-59
2022/05/19 09:48:43;;;;;;;3.97;3.13;;;28.30;99.50;;;;;;5036203;28;20852;-59
2022/05/19 09:51:13;;;;;;;5.30;2.80;;;28.40;98.10;;;;;;5035881;28;20483;-59
2022/05/19 09:53:47;;;;;;;5.47;2.60;;;28.30;97.70;;;;;;5035636;28;21018;-59
2022/05/19 09:56:15;;;;;;;3.20;2.70;;;28.30;96.90;;;;;;5036154;28;20476;-59
2022/05/19 09:58:45;;;;;;;3.13;2.60;;;28.40;97.20;;;;;;5035986;28;20559;-59
2022/05/19 10:01:20;;;;;;;3.93;2.50;;;28.30;97.30;;;;;;5036010;28;20448;-59
2022/05/19 10:03:52;;;;;;;3.20;2.87;;;28.50;96.80;;;;;;5035922;28;20815;-59
2022/05/19 10:06:21;;;;;;;3.00;2.70;;;28.60;97.00;;;;;;5035864;28;20548;-60
2022/05/19 10:08:49;;;;;;;3.33;2.77;;;28.70;97.00;;;;;;5035793;28;20494;-59
2022/05/19 10:11:24;;;;;;;2.70;2.30;;;28.80;96.80;;;;;;5035728;28;20449;-59
2022/05/19 10:13:53;;;;;;;2.70;2.50;;;28.90;96.40;;;;;;5035822;28;20559;-59
2022/05/19 10:16:31;;;;;;;2.83;2.60;;;28.80;95.10;;;;;;5035386;28;20540;-59
2022/05/19 10:19:11;;;;;;;3.00;2.80;;;28.50;96.20;;;;;;5035466;28;20457;-59
2022/05/19 10:21:52;;;;;;;2.77;2.57;;;28.80;95.50;;;;;;5035584;28;20893;-59
2022/05/19 10:24:39;;;;;;;5.00;3.07;;;28.60;95.80;;;;;;5035199;28;20511;-59
2022/05/19 10:33:01;;;;;;;7.80;3.37;;;29.00;95.50;;;;;;5035118;28;20433;-60
2022/05/19 10:35:37;;;;;;;3.87;2.60;;;28.90;95.00;;;;;;5035434;28;20457;-60
2022/05/19 10:38:29;;;;;;;5.00;2.37;;;28.90;94.50;;;;;;5035174;28;20445;-59
2022/05/19 10:41:06;;;;;;;2.50;2.30;;;29.20;94.10;;;;;;5034990;28;20457;-59
2022/05/19 10:43:45;;;;;;;2.90;2.60;;;29.40;93.90;;;;;;5034540;28;20814;-59
2022/05/19 10:46:15;;;;;;;3.13;2.80;;;29.50;93.50;;;;;;5035110;28;20445;-59
2022/05/19 10:49:01;;;;;;;2.70;2.50;;;29.70;93.20;;;;;;5035081;28;20453;-59
2022/05/19 10:51:43;;;;;;;2.90;2.60;;;29.70;93.10;;;;;;5034887;28;20936;-59
2022/05/19 10:54:25;;;;;;;2.90;2.70;;;29.90;92.50;;;;;;5034935;28;20524;-60
2022/05/19 10:57:22;;;;;;;2.90;2.70;;;29.70;91.80;;;;;;5034752;28;20537;-59
2022/05/19 11:00:05;;;;;;;4.33;2.93;;;29.40;92.50;;;;;;5035007;28;20544;-59
2022/05/19 11:03:02;;;;;;;3.00;2.80;;;29.20;92.40;;;;;;5034924;28;20456;-60
2022/05/19 11:05:46;;;;;;;2.67;2.47;;;29.50;92.50;;;;;;5034761;28;20449;-60
2022/05/19 11:08:25;;;;;;;2.67;2.50;;;29.60;91.80;;;;;;5034245;28;20536;-59
2022/05/19 11:10:58;;;;;;;3.17;2.87;;;29.70;92.00;;;;;;5034368;28;20487;-59
2022/05/19 11:13:37;;;;;;;4.33;2.50;;;29.60;91.30;;;;;;5034511;28;20483;-59
2022/05/19 11:16:14;;;;;;;2.67;2.43;;;29.70;90.90;;;;;;5034531;28;20449;-60
2022/05/19 11:18:56;;;;;;;3.10;2.80;;;30.00;91.80;;;;;;5034289;28;20449;-61
2022/05/19 11:21:34;;;;;;;3.30;3.00;;;30.10;91.00;;;;;;5034435;28;20451;-60
2022/05/19 11:24:21;;;;;;;5.73;2.70;;;30.00;90.70;;;;;;5034560;28;20479;-60
2022/05/19 11:27:05;;;;;;;5.60;2.53;;;29.80;90.60;;;;;;5034255;28;20460;-60
2022/05/19 11:29:39;;;;;;;5.30;2.53;;;30.00;90.00;;;;;;5034447;28;20521;-60
2022/05/19 11:32:12;;;;;;;3.63;2.60;;;30.00;90.40;;;;;;5033455;28;20458;-60
2022/05/19 11:34:46;;;;;;;3.80;2.70;;;29.70;89.40;;;;;;5033799;28;20481;-60
2022/05/19 11:37:26;;;;;;;5.40;2.50;;;29.50;90.20;;;;;;5034004;28;20456;-62
2022/05/19 11:40:04;;;;;;;4.73;2.33;;;29.60;89.10;;;;;;5033527;28;20518;-61
2022/05/19 11:42:39;;;;;;;3.07;2.77;;;29.60;88.40;;;;;;5033805;28;20485;-61
2022/05/19 11:45:11;;;;;;;3.37;2.63;;;29.80;89.50;;;;;;5033748;28;20455;-61
2022/05/19 11:56:09;;;;;;;3.07;2.20;;;30.30;86.80;;;;;;5032541;28;20531;-61
2022/05/19 11:58:38;;;;;;;2.83;2.47;;;30.50;87.20;;;;;;5033715;28;20453;-61
2022/05/19 12:01:09;;;;;;;3.60;2.47;;;30.50;87.10;;;;;;5033782;28;20445;-61
2022/05/19 12:03:43;;;;;;;2.93;2.70;;;30.60;87.00;;;;;;5033886;28;20450;-62
2022/05/19 12:06:19;;;;;;;3.10;2.80;;;30.60;87.00;;;;;;5033420;28;20445;-61
2022/05/19 12:08:56;;;;;;;2.83;2.63;;;30.60;85.20;;;;;;5033412;28;20449;-62
2022/05/19 12:11:27;;;;;;;3.23;2.90;;;30.60;85.50;;;;;;5033615;28;20455;-62
2022/05/19 12:14:14;;;;;;;2.70;2.50;;;30.70;84.30;;;;;;5033382;28;20485;-61
2022/05/19 12:16:46;;;;;;;3.53;3.00;;;30.70;83.80;;;;;;5033191;28;20926;-61
2022/05/19 12:19:34;;;;;;;2.93;2.50;;;30.60;83.80;;;;;;5033219;28;20544;-62
2022/05/19 12:22:01;;;;;;;3.43;2.50;;;30.60;84.70;;;;;;5033279;28;20540;-61
2022/05/19 12:24:32;;;;;;;9.07;3.23;;;30.70;82.20;;;;;;5032848;28;20539;-61
2022/05/19 12:27:01;;;;;;;2.70;2.50;;;30.70;81.80;;;;;;5032971;28;20549;-61
2022/05/19 12:29:35;;;;;;;2.83;2.63;;;30.40;80.70;;;;;;5032998;28;20456;-61
2022/05/19 12:32:17;;;;;;;3.27;2.70;;;30.50;83.10;;;;;;5033203;28;20437;-61
2022/05/19 12:34:47;;;;;;;3.30;2.63;;;30.40;79.90;;;;;;5033000;28;20485;-61
2022/05/19 12:37:35;;;;;;;3.03;2.83;;;30.60;81.60;;;;;;5033103;28;20544;-61
2022/05/19 12:40:27;;;;;;;2.90;2.70;;;30.80;77.70;;;;;;5032636;28;20863;-62
2022/05/19 12:43:19;;;;;;;3.23;2.53;;;30.90;79.00;;;;;;5032824;28;20555;-61
2022/05/19 12:45:48;;;;;;;2.70;2.50;;;30.90;78.80;;;;;;5032859;28;20945;-61
2022/05/19 12:48:26;;;;;;;4.33;4.03;;;30.80;78.10;;;;;;5032789;28;20475;-61
2022/05/19 12:51:11;;;;;;;3.40;2.57;;;30.90;78.50;;;;;;5033006;28;20445;-61
2022/05/19 12:53:45;;;;;;;3.73;2.93;;;31.20;78.60;;;;;;5033022;28;20453;-61
2022/05/19 12:56:51;;;;;;;4.80;3.00;;;31.10;78.40;;;;;;5032803;28;20813;-61
2022/05/19 12:59:31;;;;;;;3.40;3.10;;;31.10;76.80;;;;;;5032901;28;20452;-62
2022/05/19 13:02:00;;;;;;;7.37;3.50;;;31.10;77.20;;;;;;5032779;28;20476;-61
2022/05/19 13:04:36;;;;;;;4.13;2.60;;;31.00;78.30;;;;;;5032812;28;20953;-62
2022/05/19 13:07:10;;;;;;;2.73;2.53;;;31.10;79.90;;;;;;5033753;28;20445;-62
2022/05/19 13:09:38;;;;;;;3.30;3.03;;;31.10;76.20;;;;;;5036982;28;20448;-61
2022/05/19 13:12:11;;;;;;;5.23;2.60;;;31.00;78.80;;;;;;5037112;28;20444;-61
2022/05/19 13:14:44;;;;;;;3.00;2.70;;;31.10;78.40;;;;;;5036711;28;20531;-61
2022/05/19 13:17:13;;;;;;;7.37;3.20;;;31.00;77.00;;;;;;5036628;28;20460;-61
2022/05/19 13:19:42;;;;;;;4.93;2.80;;;31.00;77.70;;;;;;5036524;28;20449;-62
2022/05/19 13:22:19;;;;;;;4.47;2.40;;;31.00;77.30;;;;;;5036717;28;20543;-63
2022/05/19 13:24:47;;;;;;;10.57;3.33;;;31.00;77.60;;;;;;5036645;28;20461;-61
2022/05/19 13:30:22;;;;;;;21.90;4.00;;;30.70;76.60;;;;;;5036779;28;20428;-62
2022/05/19 13:32:49;;;;;;;8.90;3.27;;;30.80;78.10;;;;;;5036750;28;20544;-62
2022/05/19 13:35:18;;;;;;;3.23;2.87;;;31.00;78.10;;;;;;5036459;28;20522;-62
2022/05/19 13:37:47;;;;;;;3.20;2.90;;;31.00;76.20;;;;;;5036189;28;20969;-62
2022/05/19 13:40:17;;;;;;;2.70;2.50;;;30.90;76.90;;;;;;5036279;28;20452;-62
2022/05/19 13:42:52;;;;;;;3.10;2.90;;;31.00;75.00;;;;;;5036270;28;20556;-62
2022/05/19 13:45:21;;;;;;;5.73;2.63;;;31.10;76.00;;;;;;5036299;28;20445;-62
2022/05/19 13:47:49;;;;;;;4.47;2.70;;;31.30;76.80;;;;;;5036089;28;20455;-62
2022/05/19 13:50:22;;;;;;;9.07;3.50;;;31.00;75.40;;;;;;5035980;28;20480;-61
2022/05/19 13:52:54;;;;;;;3.23;2.93;;;30.90;76.30;;;;;;5036179;28;20449;-62
2022/05/19 13:55:25;;;;;;;5.23;2.70;;;31.30;76.10;;;;;;5035947;28;20606;-62
2022/05/19 13:57:54;;;;;;;3.63;2.83;;;;;;;;;;5036310;28;20453;-62
2022/05/19 14:00:22;;;;;;;4.60;3.47;;;30.80;74.80;;;;;;5036135;28;20453;-61
2022/05/19 14:02:51;;;;;;;4.23;3.17;;;30.60;74.70;;;;;;5035798;28;20485;-61